Time;durP1;ratioP1;P1;durP2;ratioP2;P2;SDS_P1;SDS_P2;PMS_P1;PMS_P2;Temp;Humidity;BMP_temperature;BMP_pressure;BME280_temperature;BME280_humidity;BME280_pressure;Samples;Min_cycle;Max_cycle;Signal;HPM_P1;HPM_P2
2022/02/12 00:02:11;;;;;;;6.17;2.17;;;;;;;0.39;83.86;102291.05;1609944;87;21087;-78
2022/02/12 00:04:55;;;;;;;5.60;1.55;;;;;;;0.37;83.85;102288.43;1623133;86;21088;-79
2022/02/12 00:07:40;;;;;;;7.55;2.08;;;;;;;0.33;83.81;102293.75;1617036;87;21100;-79
2022/02/12 00:10:27;;;;;;;6.17;1.85;;;;;;;0.30;83.78;102297.80;1615128;86;21572;-79
2022/02/12 00:13:12;;;;;;;6.83;1.90;;;;;;;0.26;83.82;102299.31;1610241;86;21574;-79
2022/02/12 00:15:57;;;;;;;5.83;1.62;;;;;;;0.25;83.83;102303.05;1610942;87;21048;-79
2022/02/12 00:18:42;;;;;;;3.42;1.07;;;;;;;0.24;83.89;102307.66;1622225;86;21612;-79
2022/02/12 00:21:27;;;;;;;8.20;1.77;;;;;;;0.23;83.90;102310.59;1621435;86;21076;-79
2022/02/12 00:24:11;;;;;;;8.00;2.22;;;;;;;0.20;83.83;102310.83;1622307;87;21436;-80
2022/02/12 00:26:56;;;;;;;10.90;2.15;;;;;;;0.16;83.77;102311.46;1631988;86;20957;-80
2022/02/12 00:29:40;;;;;;;7.47;2.00;;;;;;;0.13;83.84;102315.98;1640385;86;20991;-79
2022/02/12 00:32:25;;;;;;;10.68;2.40;;;;;;;0.11;83.84;102318.84;1639412;87;20936;-79
2022/02/12 00:35:10;;;;;;;3.20;1.30;;;;;;;0.11;83.87;102326.47;1642139;86;20968;-79
2022/02/12 00:37:55;;;;;;;8.55;1.82;;;;;;;0.10;83.83;102333.62;1639554;86;20964;-78
2022/02/12 00:40:39;;;;;;;6.23;1.40;;;;;;;0.07;83.83;102337.27;1621432;87;21320;-78
2022/02/12 00:43:24;;;;;;;9.30;2.37;;;;;;;0.06;83.88;102339.34;1646052;85;21611;-78
2022/02/12 00:46:08;;;;;;;2.65;1.40;;;;;;;0.06;83.84;102339.34;1625244;86;21083;-78
2022/02/12 00:48:53;;;;;;;5.60;1.60;;;;;;;0.04;83.87;102352.77;1626843;86;21123;-79
2022/02/12 00:51:38;;;;;;;6.90;1.72;;;;;;;0.01;83.87;102356.02;1657075;85;21111;-79
2022/02/12 00:54:22;;;;;;;8.00;2.15;;;;;;;0.00;83.86;102358.95;1639046;86;21072;-79
2022/02/12 00:57:07;;;;;;;6.75;2.12;;;;;;;-0.02;83.85;102371.14;1630662;86;21583;-79
2022/02/12 00:59:52;;;;;;;9.03;1.80;;;;;;;-0.04;83.86;102371.05;1634779;86;21100;-79
2022/02/12 01:02:37;;;;;;;4.80;1.92;;;;;;;-0.04;83.90;102381.22;1648096;86;21064;-79
2022/02/12 01:05:22;;;;;;;4.00;1.52;;;;;;;-0.06;83.83;102380.66;1635332;86;21084;-79
2022/02/12 01:08:07;;;;;;;5.10;1.60;;;;;;;-0.08;83.88;102376.76;1643375;85;21596;-79
2022/02/12 01:10:52;;;;;;;4.45;2.25;;;;;;;-0.12;83.80;102386.28;1648120;86;21108;-78
2022/02/12 01:13:36;;;;;;;6.60;1.70;;;;;;;-0.14;83.82;102384.44;1638845;86;21124;-79
2022/02/12 01:16:21;;;;;;;4.62;1.70;;;;;;;-0.16;83.85;102390.70;1631160;86;20996;-79
2022/02/12 01:19:05;;;;;;;6.90;2.00;;;;;;;-0.18;83.81;102390.14;1643808;86;21068;-80
2022/02/12 01:21:50;;;;;;;5.40;1.87;;;;;;;-0.22;83.80;102379.32;1645743;85;21061;-80
2022/02/12 01:24:39;;;;;;;6.45;1.90;;;;;;;-0.24;83.89;102388.13;1628951;86;21473;-79
2022/02/12 01:27:23;;;;;;;6.25;2.30;;;;;;;-0.25;83.86;102388.05;1645475;85;21074;-79
2022/02/12 01:30:10;;;;;;;7.20;1.80;;;;;;;-0.27;83.87;102388.35;1638443;87;21063;-78
2022/02/12 01:32:55;;;;;;;6.25;1.57;;;;;;;-0.27;83.88;102396.86;1623161;86;21135;-79
2022/02/12 01:35:40;;;;;;;5.50;1.60;;;;;;;-0.30;83.85;102398.34;1634650;86;21096;-79
2022/02/12 01:38:27;;;;;;;5.80;1.55;;;;;;;-0.32;83.89;102402.08;1644575;85;21128;-79
2022/02/12 01:41:11;;;;;;;9.95;1.72;;;;;;;-0.33;83.88;102409.22;1639346;85;21639;-79
2022/02/12 01:43:57;;;;;;;4.90;1.80;;;;;;;-0.34;83.90;102414.69;1635220;85;21064;-79
2022/02/12 01:46:41;;;;;;;;;;;;;;;-0.37;83.89;102411.09;1631747;87;21159;-79
2022/02/12 01:49:30;;;;;;;6.35;1.35;;;;;;;-0.38;83.89;102421.66;1599255;89;20210;-79
2022/02/12 01:52:20;;;;;;;5.25;1.52;;;;;;;-0.40;83.92;102421.09;1655493;85;21628;-80
2022/02/12 01:55:09;;;;;;;4.95;1.55;;;;;;;-0.43;83.90;102434.49;1647018;86;21548;-79
2022/02/12 01:57:53;;;;;;;4.35;1.60;;;;;;;-0.46;83.89;102435.98;1638228;86;21674;-79
2022/02/12 02:00:39;;;;;;;3.58;1.50;;;;;;;-0.49;83.84;102439.62;1641699;86;21060;-79
2022/02/12 02:03:28;;;;;;;7.08;1.85;;;;;;;-0.53;83.86;102446.61;1638780;86;28212;-79
2022/02/12 02:06:13;;;;;;;5.55;1.65;;;;;;;-0.56;83.90;102435.00;1625768;87;21132;-79
2022/02/12 02:09:03;;;;;;;6.60;1.42;;;;;;;-0.58;83.85;102439.98;1609302;87;21108;-79
2022/02/12 02:11:51;;;;;;;8.50;2.05;;;;;;;-0.60;83.87;102440.30;1646636;86;21132;-79
2022/02/12 02:14:40;;;;;;;11.22;1.90;;;;;;;-0.60;83.92;102439.41;1646135;85;21056;-79
2022/02/12 02:17:28;;;;;;;6.60;1.60;;;;;;;-0.61;83.88;102447.83;1639697;86;21120;-79
2022/02/12 02:20:15;;;;;;;6.42;1.50;;;;;;;-0.67;83.80;102456.84;1655063;85;21068;-79
2022/02/12 02:22:59;;;;;;;;;;;;;;;-0.70;83.79;102463.40;1605552;87;21564;-79
2022/02/12 02:25:45;;;;;;;4.55;1.57;;;;;;;-0.74;83.92;102459.80;1637185;85;20219;-79
2022/02/12 02:28:30;;;;;;;5.83;2.15;;;;;;;-0.74;83.96;102455.99;1639884;85;21086;-79
2022/02/12 02:31:15;;;;;;;7.67;2.98;;;;;;;-0.77;83.87;102455.81;1628545;86;21260;-78
2022/02/12 02:34:11;;;;;;;3.93;1.90;;;;;;;-0.78;84.01;102459.13;1608655;86;21130;-79
2022/02/12 02:36:55;;;;;;;9.13;2.25;;;;;;;-0.77;84.01;102467.63;1624966;86;21141;-79
2022/02/12 02:39:40;;;;;;;4.95;1.50;;;;;;;-0.78;83.95;102465.48;1642571;86;21082;-79
2022/02/12 02:42:25;;;;;;;7.60;2.15;;;;;;;-0.81;83.97;102467.84;1621123;86;21138;-78
2022/02/12 02:45:12;;;;;;;5.00;1.47;;;;;;;-0.81;83.97;102474.58;1635928;85;21059;-78
2022/02/12 02:48:02;;;;;;;9.65;1.77;;;;;;;-0.82;83.96;102476.64;1649489;85;21535;-78
2022/02/12 02:56:57;;;;;;;3.75;1.70;;;;;;;-0.89;84.03;102491.90;1658295;85;20994;-79
2022/02/12 02:59:41;;;;;;;7.60;1.80;;;;;;;-0.91;83.99;102488.78;1653371;85;21071;-79
2022/02/12 03:02:26;;;;;;;7.70;1.62;;;;;;;-0.92;84.00;102485.36;1649700;86;20914;-80
2022/02/12 03:05:10;;;;;;;5.58;1.90;;;;;;;-0.93;83.94;102492.50;1646295;85;21017;-79
2022/02/12 03:07:58;;;;;;;5.33;1.80;;;;;;;-0.95;83.93;102492.80;1636618;87;20909;-79
2022/02/12 03:10:44;;;;;;;4.42;1.82;;;;;;;-0.97;83.97;102495.63;1630775;86;21006;-79
2022/02/12 03:13:31;;;;;;;4.92;1.70;;;;;;;-0.98;83.94;102497.69;1659465;86;21012;-79
2022/02/12 03:16:19;;;;;;;4.47;1.72;;;;;;;-1.00;83.98;102497.98;1627227;86;20991;-79
2022/02/12 03:19:04;;;;;;;6.25;2.02;;;;;;;-1.01;83.99;102504.72;1645974;86;20980;-80
2022/02/12 03:21:49;;;;;;;7.03;2.25;;;;;;;-1.03;83.96;102509.22;1653074;86;21008;-80
2022/02/12 03:24:33;;;;;;;4.72;2.22;;;;;;;-1.04;83.96;102521.04;1650158;85;20993;-80
2022/02/12 03:27:18;;;;;;;5.80;2.50;;;;;;;-1.08;83.98;102519.13;1688381;84;21100;-80
2022/02/12 03:30:06;;;;;;;8.33;2.60;;;;;;;-1.07;84.03;102523.42;1649199;85;21528;-79
2022/02/12 03:32:51;;;;;;;4.78;2.20;;;;;;;-1.07;84.10;102525.08;1663519;86;21472;-80
2022/02/12 03:35:39;;;;;;;9.88;2.62;;;;;;;-1.07;84.08;102525.08;1624795;86;21072;-80
2022/02/12 03:38:30;;;;;;;9.13;2.45;;;;;;;-1.07;84.00;102525.08;1651971;86;21003;-80
2022/02/12 03:41:15;;;;;;;7.53;2.72;;;;;;;-1.10;84.03;102521.09;1643620;87;20996;-79
2022/02/12 03:44:01;;;;;;;5.67;2.00;;;;;;;-1.11;84.02;102526.94;1645504;86;21116;-79
2022/02/12 03:46:49;;;;;;;8.13;2.75;;;;;;;-1.12;84.01;102533.68;1644544;87;21012;-80
2022/02/12 03:49:33;;;;;;;6.85;2.87;;;;;;;-1.11;84.05;102540.91;1628500;87;21005;-80
2022/02/12 03:52:17;;;;;;;9.80;3.60;;;;;;;-1.11;84.06;102548.52;1644985;87;20952;-80
2022/02/12 03:55:02;;;;;;;7.03;3.75;;;;;;;-1.13;84.02;102543.34;1644741;87;21044;-80
2022/02/12 03:57:48;;;;;;;10.75;3.75;;;;;;;-1.13;84.02;102555.16;1647538;87;20996;-80
2022/02/12 04:00:34;;;;;;;8.15;2.92;;;;;;;-1.14;84.00;102559.75;1664324;85;21013;-80
2022/02/12 04:03:18;;;;;;;;;;;;;;;-1.15;84.04;102555.06;1639276;86;21112;-80
2022/02/12 04:06:03;;;;;;;10.18;2.65;;;;;;;-1.16;84.05;102556.23;1630376;86;20159;-79
2022/02/12 04:08:48;;;;;;;6.95;2.55;;;;;;;-1.16;84.05;102549.89;1659495;85;21151;-79
2022/02/12 04:11:32;;;;;;;5.45;2.58;;;;;;;-1.20;84.01;102549.22;1661085;84;21111;-79
2022/02/12 04:14:20;;;;;;;7.97;2.95;;;;;;;-1.18;84.12;102557.80;1648350;86;21638;-80
2022/02/12 04:17:05;;;;;;;8.40;2.72;;;;;;;-1.19;84.08;102559.85;1636872;86;21016;-79
2022/02/12 04:19:49;;;;;;;8.40;3.12;;;;;;;-1.21;84.07;102552.53;1636350;87;21023;-80
2022/02/12 04:22:36;;;;;;;8.53;3.27;;;;;;;-1.23;84.00;102560.44;1660926;84;21086;-80
2022/02/12 04:25:25;;;;;;;8.73;2.80;;;;;;;-1.24;84.09;102550.68;1651621;86;21688;-80
2022/02/12 04:28:11;;;;;;;6.83;2.90;;;;;;;-1.26;84.05;102556.05;1662165;84;21048;-80
2022/02/12 04:30:55;;;;;;;;;;;;;;;-1.28;84.06;102548.73;1661511;85;21086;-79
2022/02/12 04:33:39;;;;;;;11.50;2.92;;;;;;;-1.29;84.11;102548.25;1629858;86;20471;-79
2022/02/12 04:36:26;;;;;;;6.92;2.90;;;;;;;-1.30;84.04;102548.15;1642154;85;21730;-79
2022/02/12 04:39:11;;;;;;;8.93;3.40;;;;;;;-1.33;84.01;102551.38;1642972;84;21000;-79
2022/02/12 04:42:03;;;;;;;9.47;3.63;;;;;;;-1.36;84.00;102555.86;1648048;86;20981;-79
2022/02/12 04:44:53;;;;;;;11.25;3.75;;;;;;;-1.38;84.00;102559.96;1650306;85;20964;-79
2022/02/12 04:47:39;;;;;;;12.33;4.92;;;;;;;-1.40;84.02;102558.98;1658036;86;21789;-79
2022/02/12 04:50:24;;;;;;;9.43;3.75;;;;;;;-1.43;83.98;102560.06;1624998;88;21076;-80
2022/02/12 04:53:08;;;;;;;8.98;4.08;;;;;;;-1.46;83.91;102566.59;1651551;85;21070;-79
2022/02/12 04:55:54;;;;;;;9.93;4.00;;;;;;;-1.51;83.84;102566.30;1636835;87;21528;-79
2022/02/12 04:58:38;;;;;;;10.15;3.27;;;;;;;-1.56;84.11;102556.67;1633259;86;21110;-79
2022/02/12 05:01:24;;;;;;;6.65;3.27;;;;;;;-1.56;84.11;102556.67;1658294;86;21096;-79
2022/02/12 05:04:08;;;;;;;12.05;3.52;;;;;;;-1.59;83.87;102566.63;1619267;87;21052;-79
2022/02/12 05:06:53;;;;;;;6.75;3.27;;;;;;;-1.64;83.82;102558.72;1650532;86;21099;-79
2022/02/12 05:09:40;;;;;;;7.65;3.05;;;;;;;-1.67;83.91;102559.78;1652150;85;21612;-79
2022/02/12 05:12:24;;;;;;;11.22;3.12;;;;;;;-1.67;83.93;102562.32;1642831;86;21059;-79
2022/02/12 05:15:10;;;;;;;5.15;2.72;;;;;;;-1.67;84.10;102563.20;1640831;86;21019;-79
2022/02/12 05:17:54;;;;;;;10.30;3.62;;;;;;;-1.69;83.92;102568.56;1642100;86;21040;-79
2022/02/12 05:20:39;;;;;;;8.95;3.47;;;;;;;-1.72;83.93;102564.95;1647654;85;21139;-79
2022/02/12 05:23:25;;;;;;;6.70;3.22;;;;;;;-1.74;83.93;102571.19;1648087;85;21093;-79
2022/02/12 05:26:09;;;;;;;10.65;3.42;;;;;;;-1.73;84.01;102580.94;1655220;85;20960;-80
2022/02/12 05:28:54;;;;;;;6.50;3.35;;;;;;;-1.75;84.00;102572.36;1649693;84;21043;-79
2022/02/12 05:31:40;;;;;;;7.75;3.62;;;;;;;-1.75;84.07;102571.09;1644897;84;21127;-79
2022/02/12 05:34:25;;;;;;;4.70;2.77;;;;;;;-1.76;84.00;102576.55;1659851;84;21088;-80
2022/02/12 05:37:10;;;;;;;16.20;4.60;;;;;;;-1.79;84.01;102581.42;1662465;84;21043;-78
2022/02/12 05:39:59;;;;;;;7.30;3.22;;;;;;;-1.80;84.04;102580.05;1655164;86;21444;-80
2022/02/12 05:42:44;;;;;;;12.53;3.85;;;;;;;-1.80;84.06;102581.32;1658692;86;21052;-79
2022/02/12 05:45:30;;;;;;;11.08;3.90;;;;;;;-1.79;84.12;102595.75;1666388;86;21042;-80
2022/02/12 05:48:16;;;;;;;8.33;3.75;;;;;;;-1.80;84.14;102605.02;1648260;85;21049;-79
2022/02/12 05:51:02;;;;;;;11.65;3.33;;;;;;;-1.81;84.09;102611.25;1630892;87;22043;-79
2022/02/12 05:53:47;;;;;;;8.78;3.50;;;;;;;-1.80;84.15;102609.21;1650480;85;21056;-79
2022/02/12 05:56:35;;;;;;;9.55;3.10;;;;;;;-1.82;84.13;102612.91;1656149;83;21066;-79
2022/02/12 05:59:22;;;;;;;10.88;3.42;;;;;;;-1.81;84.22;102615.94;1625728;86;21154;-79
2022/02/12 06:02:07;;;;;;;11.03;3.58;;;;;;;-1.82;84.15;102617.98;1625880;85;21579;-79
2022/02/12 06:04:52;;;;;;;7.60;2.75;;;;;;;-1.81;84.14;102620.13;1657277;85;21055;-79
2022/02/12 06:07:36;;;;;;;7.45;2.70;;;;;;;-1.82;84.12;102627.25;1662009;85;21072;-79
2022/02/12 06:10:22;;;;;;;7.90;3.65;;;;;;;-1.81;84.19;102627.34;1637611;85;21476;-79
2022/02/12 06:13:06;;;;;;;9.33;3.20;;;;;;;-1.81;84.16;102633.69;1664896;85;21048;-79
2022/02/12 06:15:51;;;;;;;10.72;3.58;;;;;;;-1.80;84.16;102637.10;1652818;84;21083;-79
2022/02/12 06:18:37;;;;;;;8.48;3.25;;;;;;;-1.81;84.15;102631.54;1659731;83;20993;-79
2022/02/12 06:21:22;;;;;;;7.90;3.60;;;;;;;-1.82;84.11;102633.20;1645194;85;21000;-79
2022/02/12 06:24:06;;;;;;;8.68;3.33;;;;;;;-1.82;84.09;102645.00;1642034;85;21465;-79
2022/02/12 06:26:56;;;;;;;5.50;2.52;;;;;;;-1.84;84.13;102645.28;1639841;86;21079;-75
2022/02/12 06:29:37;;;;;;;5.62;2.83;;;;;;;-1.84;84.15;102638.94;1652779;83;21385;-75
2022/02/12 06:32:22;;;;;;;9.40;2.87;;;;;;;-1.84;84.12;102645.28;1627864;86;20921;-75
2022/02/12 06:35:08;;;;;;;6.60;2.65;;;;;;;-1.84;84.12;102646.55;1644524;86;20908;-75
2022/02/12 06:37:52;;;;;;;8.40;2.83;;;;;;;-1.84;84.17;102644.89;1649387;86;20911;-75
2022/02/12 06:40:36;;;;;;;7.85;2.87;;;;;;;-1.81;84.27;102645.09;1654813;85;21430;-75
2022/02/12 06:43:21;;;;;;;10.32;3.62;;;;;;;-1.79;84.26;102645.20;1654024;86;20964;-75
2022/02/12 06:46:05;;;;;;;9.20;3.10;;;;;;;-1.77;84.25;102647.06;1661136;84;20917;-75
2022/02/12 06:48:51;;;;;;;6.83;3.77;;;;;;;-1.72;84.27;102652.44;1656759;85;20949;-77
2022/02/12 06:51:36;;;;;;;10.03;4.50;;;;;;;-1.68;84.35;102650.20;1625618;86;21518;-76
2022/02/12 06:54:20;;;;;;;6.55;4.58;;;;;;;-1.59;84.44;102649.94;1644918;85;20969;-77
2022/02/12 06:57:04;;;;;;;12.70;4.37;;;;;;;-1.50;84.46;102647.97;1656927;84;20944;-76
2022/02/12 06:59:48;;;;;;;13.68;5.37;;;;;;;-1.38;84.51;102641.55;1637862;86;20964;-76
2022/02/12 07:02:35;;;;;;;7.70;3.87;;;;;;;-1.25;84.53;102647.91;1637156;85;21080;-78
2022/02/12 07:05:25;;;;;;;8.80;4.10;;;;;;;-1.11;84.51;102648.79;1608828;88;21616;-78
2022/02/12 07:08:12;;;;;;;12.15;4.47;;;;;;;-0.97;84.53;102655.59;1651067;85;21102;-78
2022/02/12 07:10:56;;;;;;;9.48;3.90;;;;;;;-0.84;84.55;102655.97;1632978;85;21064;-79
2022/02/12 07:13:40;;;;;;;10.15;3.67;;;;;;;-0.73;84.48;102662.22;1644259;85;21593;-79
2022/02/12 07:16:30;;;;;;;7.92;4.03;;;;;;;-0.64;84.41;102656.83;1653125;85;21555;-79
2022/02/12 07:19:15;;;;;;;7.70;3.60;;;;;;;-0.55;84.45;102662.88;1622822;86;21160;-79
2022/02/12 07:22:04;;;;;;;13.20;4.47;;;;;;;-0.44;84.51;102662.72;1656692;83;21734;-80
2022/02/12 07:24:48;;;;;;;10.32;3.42;;;;;;;-0.28;84.51;102661.11;1656120;85;21522;-79
2022/02/12 07:27:33;;;;;;;12.37;3.87;;;;;;;-0.14;84.52;102658.62;1647936;84;21067;-78
2022/02/12 07:30:17;;;;;;;6.67;2.70;;;;;;;-0.04;84.41;102658.78;1668170;84;21107;-78
2022/02/12 07:33:02;;;;;;;9.83;3.83;;;;;;;0.01;84.44;102661.17;1630700;85;20930;-78
2022/02/12 07:35:49;;;;;;;5.85;3.42;;;;;;;0.05;84.43;102666.93;1655267;85;21092;-75
2022/02/12 07:38:33;;;;;;;10.05;4.05;;;;;;;0.14;84.45;102676.77;1649824;83;21059;-75
2022/02/12 07:41:18;;;;;;;7.15;3.30;;;;;;;0.19;84.46;102671.17;1657457;84;21107;-77
2022/02/12 07:44:04;;;;;;;11.50;3.95;;;;;;;0.29;84.45;102679.83;1624994;86;21771;-77
2022/02/12 07:46:48;;;;;;;10.35;4.58;;;;;;;0.36;84.42;102683.61;1636173;87;20914;-77
2022/02/12 07:49:32;;;;;;;14.23;3.52;;;;;;;0.39;84.42;102686.34;1641398;85;21142;-79
2022/02/12 07:52:25;;;;;;;6.97;3.47;;;;;;;0.42;84.36;102685.64;1647234;85;21570;-76
2022/02/12 07:55:11;;;;;;;6.33;3.02;;;;;;;0.40;84.39;102692.30;1645455;85;21067;-72
2022/02/12 07:57:55;;;;;;;;;;;;;;;0.46;84.53;102702.84;1653812;85;21095;-73
2022/02/12 08:00:40;;;;;;;6.45;3.17;;;;;;;0.50;84.59;102704.78;1612055;88;20194;-73
2022/02/12 08:03:24;;;;;;;6.22;2.87;;;;;;;0.55;84.60;102699.53;1642774;85;21055;-73
2022/02/12 08:07:27;;;;;;;7.45;3.70;;;;;;;0.55;84.53;102705.89;1640247;85;21086;-73
2022/02/12 08:08:56;;;;;;;12.28;3.95;;;;;;;0.58;84.54;102699.31;1647487;85;21677;-74
2022/02/12 08:11:42;;;;;;;13.03;4.17;;;;;;;0.60;84.55;102701.55;1659418;85;21055;-73
2022/02/12 08:14:27;;;;;;;12.53;4.40;;;;;;;0.57;84.48;102707.73;1634731;86;21111;-74
2022/02/12 08:17:12;;;;;;;7.50;4.58;;;;;;;0.57;84.58;102720.46;1645158;86;21627;-74
2022/02/12 08:19:58;;;;;;;11.00;5.23;;;;;;;0.61;84.64;102720.25;1600721;87;20981;-74
2022/02/12 08:22:42;;;;;;;19.83;11.97;;;;;;;0.64;84.63;102717.48;1630797;87;20913;-74
2022/02/12 08:25:27;;;;;;;96.05;72.32;;;;;;;0.70;84.67;102725.00;1636525;86;20974;-73
2022/02/12 08:28:12;;;;;;;31.27;20.00;;;;;;;0.73;84.67;102728.59;1641715;85;21131;-73
2022/02/12 08:30:56;;;;;;;29.67;19.00;;;;;;;0.76;84.67;102734.27;1635110;85;21107;-73
2022/02/12 08:33:40;;;;;;;19.37;9.68;;;;;;;0.80;84.68;102731.98;1633064;87;21103;-72
2022/02/12 08:36:25;;;;;;;16.82;7.47;;;;;;;0.85;84.73;102734.40;1635862;85;21114;-73
2022/02/12 08:39:10;;;;;;;16.45;7.83;;;;;;;0.87;84.65;102737.91;1632980;85;21730;-72
2022/02/12 08:41:55;;;;;;;15.70;6.08;;;;;;;0.93;84.69;102731.02;1643255;85;20988;-74
2022/02/12 08:44:40;;;;;;;14.47;8.28;;;;;;;0.96;84.69;102734.62;1642103;86;21394;-75
2022/02/12 08:47:24;;;;;;;10.95;5.40;;;;;;;0.97;84.69;102738.92;1627747;86;21082;-75
2022/02/12 08:50:09;;;;;;;11.73;6.47;;;;;;;1.01;84.67;102744.19;1637891;86;21103;-74
2022/02/12 08:52:54;;;;;;;15.43;4.50;;;;;;;1.02;84.67;102745.55;1636743;85;21011;-74
2022/02/12 08:55:38;;;;;;;17.82;8.13;;;;;;;1.04;84.67;102741.39;1630525;86;21637;-74
2022/02/12 08:58:23;;;;;;;15.10;4.92;;;;;;;1.07;84.62;102743.23;1631347;87;21032;-73
2022/02/12 09:01:08;;;;;;;7.12;4.67;;;;;;;1.08;84.60;102753.91;1640424;87;21611;-72
2022/02/12 09:03:52;;;;;;;8.98;4.97;;;;;;;1.09;84.68;102755.27;1643107;86;21421;-72
2022/02/12 09:06:38;;;;;;;17.70;7.05;;;;;;;1.15;84.69;102756.89;1619608;87;21640;-72
2022/02/12 09:09:23;;;;;;;10.15;5.67;;;;;;;1.20;84.69;102758.42;1645845;86;20937;-72
2022/02/12 09:12:10;;;;;;;8.00;5.07;;;;;;;1.24;84.70;102757.80;1633828;87;20918;-72
2022/02/12 09:14:54;;;;;;;22.10;10.03;;;;;;;1.27;84.67;102753.76;1634147;86;21243;-72
2022/02/12 09:17:39;;;;;;;11.15;5.37;;;;;;;1.32;84.67;102752.74;1642510;87;21541;-72
2022/02/12 09:20:23;;;;;;;18.45;12.28;;;;;;;1.35;84.62;102749.48;1640180;86;21619;-71
2022/02/12 09:23:08;;;;;;;17.10;12.75;;;;;;;1.37;84.61;102747.90;1642375;86;21071;-71
2022/02/12 09:25:52;;;;;;;15.58;6.20;;;;;;;1.40;84.67;102743.85;1641872;87;21069;-71
2022/02/12 09:28:37;;;;;;;9.63;4.67;;;;;;;1.45;84.65;102738.61;1624861;87;21112;-71
2022/02/12 09:31:21;;;;;;;11.15;4.92;;;;;;;1.50;84.62;102732.09;1623851;87;21119;-72
2022/02/12 09:34:08;;;;;;;13.25;5.10;;;;;;;1.57;84.66;102730.73;1627430;87;21084;-72
2022/02/12 09:36:52;;;;;;;13.68;7.22;;;;;;;1.62;84.68;102721.26;1651975;85;21357;-72
2022/02/12 09:39:37;;;;;;;12.00;7.20;;;;;;;1.68;84.61;102719.83;1643340;85;21115;-72
2022/02/12 09:42:22;;;;;;;12.10;5.00;;;;;;;1.75;84.57;102721.92;1648257;86;21064;-72
2022/02/12 09:45:08;;;;;;;15.35;5.05;;;;;;;1.81;84.55;102722.25;1628957;87;21061;-72
2022/02/12 09:47:53;;;;;;;10.82;4.97;;;;;;;1.87;84.46;102719.62;1626367;86;28126;-72
2022/02/12 09:50:38;;;;;;;6.35;3.17;;;;;;;1.91;84.42;102723.22;1650611;85;20980;-73
2022/02/12 09:53:23;;;;;;;6.28;3.15;;;;;;;1.95;84.37;102720.91;1648808;85;20944;-73
2022/02/12 09:56:08;;;;;;;9.85;3.17;;;;;;;2.01;84.33;102727.13;1642173;85;21392;-73
2022/02/12 09:58:52;;;;;;;6.58;2.77;;;;;;;2.09;84.34;102719.05;1646263;86;20928;-74
2022/02/12 10:01:40;;;;;;;9.30;2.67;;;;;;;2.17;84.34;102724.16;1625780;86;20945;-73
2022/02/12 10:04:25;;;;;;;5.60;2.22;;;;;;;2.20;84.18;102723.44;1650607;86;20941;-72
2022/02/12 10:07:25;;;;;;;4.65;2.40;;;;;;;2.22;84.13;102713.79;1647056;86;21421;-72
2022/02/12 10:10:14;;;;;;;6.58;2.20;;;;;;;2.24;84.14;102712.59;1637728;87;21032;-72
2022/02/12 10:13:29;;;;;;;7.58;2.47;;;;;;;2.25;84.08;102707.56;1651667;86;20993;-72
2022/02/12 10:16:13;;;;;;;6.20;2.58;;;;;;;2.28;84.08;102705.57;1648694;86;21426;-72
2022/02/12 10:18:58;;;;;;;4.47;1.90;;;;;;;2.32;84.03;102702.38;1653625;85;20926;-72
2022/02/12 10:22:07;;;;;;;6.33;2.33;;;;;;;2.34;83.95;102698.23;1646251;86;20949;-72
2022/02/12 10:25:04;;;;;;;6.83;2.42;;;;;;;2.39;84.08;102693.36;1638723;86;20938;-72
2022/02/12 10:27:46;;;;;;;8.13;3.00;;;;;;;2.44;83.94;102695.74;1667179;84;20960;-72
2022/02/12 10:30:33;;;;;;;9.18;2.75;;;;;;;2.46;83.95;102692.47;1644640;86;20968;-72
2022/02/12 10:33:17;;;;;;;6.92;1.85;;;;;;;2.50;83.95;102692.22;1648279;86;20961;-72
2022/02/12 10:36:04;;;;;;;6.92;2.35;;;;;;;2.54;83.83;102699.23;1616418;87;21417;-72
2022/02/12 10:38:52;;;;;;;4.45;2.20;;;;;;;2.56;83.86;102694.68;1631336;86;20966;-72
2022/02/12 10:41:37;;;;;;;6.97;2.37;;;;;;;2.61;83.84;102685.94;1643368;87;21492;-72
2022/02/12 10:44:22;;;;;;;6.87;2.70;;;;;;;2.64;83.81;102682.26;1640471;87;20956;-72
2022/02/12 10:47:08;;;;;;;5.55;2.77;;;;;;;2.68;83.84;102685.44;1647112;85;20953;-72
2022/02/12 10:49:52;;;;;;;10.82;3.47;;;;;;;2.74;83.97;102681.91;1642757;87;20940;-72
2022/02/12 10:52:48;;;;;;;8.23;2.92;;;;;;;2.79;83.82;102679.19;1645852;86;20968;-72
2022/02/12 10:55:38;;;;;;;6.67;3.30;;;;;;;2.84;83.80;102673.02;1623785;86;20921;-72
2022/02/12 10:58:24;;;;;;;12.70;3.02;;;;;;;2.85;83.73;102671.81;1637084;86;21845;-72
2022/02/12 11:01:08;;;;;;;8.05;4.30;;;;;;;2.89;83.76;102676.67;1643824;86;20920;-72
2022/02/12 11:03:52;;;;;;;10.20;3.08;;;;;;;2.89;83.69;102676.67;1624174;86;20929;-72
2022/02/12 11:06:37;;;;;;;8.23;2.92;;;;;;;2.91;83.74;102677.63;1644869;87;20933;-72
2022/02/12 11:09:22;;;;;;;8.80;3.08;;;;;;;2.91;83.65;102678.91;1634029;87;20964;-72
2022/02/12 11:12:07;;;;;;;5.35;2.77;;;;;;;2.91;83.66;102678.91;1633902;87;21438;-72
2022/02/12 11:14:54;;;;;;;9.83;3.62;;;;;;;2.92;83.66;102675.14;1643301;86;20932;-72
2022/02/12 11:17:40;;;;;;;7.67;2.80;;;;;;;2.91;83.50;102680.18;1637994;86;20964;-71
2022/02/12 11:20:27;;;;;;;5.05;2.37;;;;;;;2.88;83.52;102678.75;1627194;86;20953;-71
2022/02/12 11:23:24;;;;;;;6.50;2.15;;;;;;;2.86;83.48;102676.12;1642835;86;20972;-72
2022/02/12 11:26:20;;;;;;;8.35;2.50;;;;;;;2.87;83.47;102668.94;1620915;87;21480;-72
2022/02/12 11:29:33;;;;;;;8.78;2.98;;;;;;;2.89;83.57;102667.33;1641572;86;20953;-72
2022/02/12 11:32:24;;;;;;;5.28;2.02;;;;;;;2.92;83.44;102670.44;1593289;89;21017;-73
2022/02/12 11:35:14;;;;;;;8.73;2.77;;;;;;;2.98;83.42;102657.95;1602172;87;20942;-73
2022/02/12 11:37:59;;;;;;;4.12;1.90;;;;;;;3.04;83.28;102657.37;1602141;89;20974;-76
2022/02/12 11:40:43;;;;;;;6.83;2.00;;;;;;;3.03;83.17;102662.88;1591168;88;21451;-72
2022/02/12 11:43:37;;;;;;;7.22;1.95;;;;;;;3.04;83.20;102659.92;1598971;88;20923;-72
2022/02/12 11:46:53;;;;;;;4.28;1.65;;;;;;;3.02;83.09;102657.70;1598077;89;20938;-72
2022/02/12 11:49:42;;;;;;;6.35;2.50;;;;;;;3.03;83.20;102652.66;1618060;88;20943;-72
2022/02/12 11:52:37;;;;;;;6.25;2.65;;;;;;;3.05;83.05;102647.22;1617215;88;20972;-72
2022/02/12 11:55:35;;;;;;;5.70;2.57;;;;;;;3.00;82.99;102637.18;1639346;86;20949;-72
2022/02/12 11:58:45;;;;;;;4.95;2.20;;;;;;;2.92;82.85;102646.16;1633408;86;21073;-72
2022/02/12 12:01:35;;;;;;;4.97;2.65;;;;;;;2.91;82.95;102654.23;1636821;85;21489;-71
2022/02/12 12:04:25;;;;;;;4.00;2.27;;;;;;;2.89;82.87;102644.34;1628827;86;20957;-72
2022/02/12 12:07:13;;;;;;;7.65;3.05;;;;;;;2.82;82.81;102634.63;1636214;86;20926;-72
2022/02/12 12:10:09;;;;;;;5.33;2.60;;;;;;;2.81;82.85;102638.38;1640831;86;20910;-72
2022/02/12 12:13:01;;;;;;;5.53;2.52;;;;;;;2.78;82.87;102636.95;1624734;86;21385;-72
2022/02/12 12:15:59;;;;;;;7.83;2.40;;;;;;;2.78;82.85;102631.45;1642731;85;21481;-72
2022/02/12 12:18:45;;;;;;;6.30;2.08;;;;;;;2.81;82.76;102627.77;1644364;86;21465;-72
2022/02/12 12:21:30;;;;;;;6.15;2.70;;;;;;;2.84;82.82;102621.52;1626798;86;20921;-71
2022/02/12 12:24:19;;;;;;;6.17;2.60;;;;;;;2.83;82.59;102624.88;1638562;85;20950;-71
2022/02/12 12:27:05;;;;;;;8.38;3.87;;;;;;;2.79;82.60;102625.53;1647640;86;21579;-71
2022/02/12 12:32:58;;;;;;;6.92;2.83;;;;;;;2.78;82.60;102612.69;1629596;85;20977;-71
2022/02/12 12:35:51;;;;;;;10.75;3.30;;;;;;;2.80;82.60;102594.48;1630695;86;20973;-71
2022/02/12 12:38:42;;;;;;;7.08;3.20;;;;;;;2.85;82.72;102593.89;1635065;87;20961;-71
2022/02/12 12:41:33;;;;;;;6.12;2.45;;;;;;;2.92;82.70;102596.34;1635427;85;20961;-71
2022/02/12 12:44:23;;;;;;;3.15;1.87;;;;;;;2.96;82.52;102590.16;1653302;86;20953;-71
2022/02/12 12:47:08;;;;;;;6.10;2.12;;;;;;;2.99;82.45;102585.20;1643281;85;21456;-72
2022/02/12 12:49:55;;;;;;;9.20;2.47;;;;;;;3.04;82.31;102586.69;1627226;87;20952;-72
2022/02/12 12:52:40;;;;;;;7.58;2.83;;;;;;;3.06;82.34;102579.97;1641070;87;20962;-72
2022/02/12 12:55:25;;;;;;;7.08;2.45;;;;;;;3.10;82.29;102582.27;1608655;87;33440;-72
2022/02/12 12:58:16;;;;;;;3.83;2.17;;;;;;;3.15;82.19;102573.09;1637826;87;21496;-72
2022/02/12 13:01:10;;;;;;;6.12;2.33;;;;;;;3.19;82.20;102572.42;1627949;87;20925;-72
2022/02/12 13:03:59;;;;;;;7.95;2.33;;;;;;;3.23;82.10;102571.77;1642252;85;20924;-71
2022/02/12 13:06:52;;;;;;;4.35;2.37;;;;;;;3.26;82.08;102559.99;1630841;86;21394;-71
2022/02/12 13:09:37;;;;;;;5.78;2.40;;;;;;;3.27;81.96;102546.80;1627613;86;21402;-72